Time;durP1;ratioP1;P1;durP2;ratioP2;P2;SDS_P1;SDS_P2;PMS_P1;PMS_P2;Temp;Humidity;BMP_temperature;BMP_pressure;BME280_temperature;BME280_humidity;BME280_pressure;Samples;Min_cycle;Max_cycle;Signal;HPM_P1;HPM_P2
2022/09/07 00:01:25;;;;;;;1.53;0.83;;;18.70;99.90;;;;;;5057772;28;20249;-80
2022/09/07 00:03:55;;;;;;;2.37;1.03;;;18.70;99.90;;;;;;5059548;28;20176;-81
2022/09/07 00:06:20;;;;;;;1.03;0.70;;;18.70;99.90;;;;;;5060022;28;20168;-79
2022/09/07 00:08:46;;;;;;;4.87;1.07;;;18.60;99.90;;;;;;5060107;28;20191;-79
2022/09/07 00:11:17;;;;;;;2.57;1.17;;;18.50;99.90;;;;;;5058979;28;20261;-79
2022/09/07 00:13:45;;;;;;;2.20;0.93;;;18.60;99.90;;;;;;5058873;28;20203;-79
2022/09/07 00:16:14;;;;;;;1.53;1.00;;;18.50;99.90;;;;;;5057674;28;20668;-79
2022/09/07 00:18:40;;;;;;;2.37;1.17;;;18.60;99.90;;;;;;5059715;28;20253;-78
2022/09/07 00:21:08;;;;;;;3.57;1.10;;;18.70;99.90;;;;;;5059263;28;20175;-78
2022/09/07 00:23:35;;;;;;;4.30;1.40;;;18.60;99.90;;;;;;5059916;28;20270;-79
2022/09/07 00:26:06;;;;;;;3.70;1.40;;;18.80;99.90;;;;;;5059694;28;20179;-79
2022/09/07 00:28:32;;;;;;;1.80;1.00;;;18.80;99.90;;;;;;5061783;28;20277;-79
2022/09/07 00:30:58;;;;;;;5.27;1.23;;;18.80;99.90;;;;;;5060933;28;20196;-78
2022/09/07 00:33:23;;;;;;;3.27;1.43;;;18.80;99.90;;;;;;5061375;28;20184;-79
2022/09/07 00:35:49;;;;;;;5.57;1.67;;;18.70;99.90;;;;;;5060692;28;20215;-78
2022/09/07 00:38:15;;;;;;;3.30;1.27;;;18.80;99.90;;;;;;5059816;28;20195;-78
2022/09/07 00:40:40;;;;;;;4.57;1.57;;;18.70;99.90;;;;;;5058764;28;20183;-78
2022/09/07 00:43:06;;;;;;;3.07;1.20;;;18.70;99.90;;;;;;5057675;28;20163;-78
2022/09/07 00:45:32;;;;;;;11.07;2.00;;;18.70;99.90;;;;;;5058419;28;20207;-78
2022/09/07 00:48:07;;;;;;;6.87;1.37;;;18.80;99.90;;;;;;5057483;28;20241;-79
2022/09/07 00:50:55;;;;;;;5.30;1.90;;;18.60;99.90;;;;;;5058430;28;20151;-78
2022/09/07 00:53:30;;;;;;;3.37;1.50;;;18.60;99.90;;;;;;5058471;28;20160;-78
2022/09/07 00:55:58;;;;;;;5.23;1.37;;;18.60;99.90;;;;;;5057697;28;20167;-78
2022/09/07 00:58:24;;;;;;;5.03;1.33;;;18.60;99.90;;;;;;5057712;28;20192;-77
2022/09/07 01:00:50;;;;;;;5.03;1.30;;;18.50;99.90;;;;;;5058812;28;20199;-78
2022/09/07 01:03:21;;;;;;;3.30;1.23;;;18.50;99.90;;;;;;5057953;28;20203;-78
2022/09/07 01:06:14;;;;;;;3.73;1.40;;;18.40;99.90;;;;;;5057290;28;20187;-78
2022/09/07 01:08:42;;;;;;;5.23;1.50;;;18.50;99.90;;;;;;5050831;28;20595;-77
2022/09/07 01:11:08;;;;;;;3.33;1.20;;;18.40;99.90;;;;;;5057720;28;20738;-78
2022/09/07 01:13:34;;;;;;;3.97;1.60;;;18.30;99.90;;;;;;5058072;28;20254;-77
2022/09/07 01:16:20;;;;;;;4.47;1.20;;;18.10;99.90;;;;;;5056570;28;20206;-78
2022/09/07 01:19:17;;;;;;;3.67;1.70;;;18.20;99.90;;;;;;5056674;28;20202;-78
2022/09/07 01:22:06;;;;;;;3.87;1.27;;;18.20;99.90;;;;;;5057092;28;20206;-78
2022/09/07 01:24:57;;;;;;;2.03;1.00;;;18.30;99.90;;;;;;5058110;28;20166;-78
2022/09/07 01:27:26;;;;;;;3.07;1.20;;;18.30;99.90;;;;;;5056236;28;20202;-78
2022/09/07 01:30:11;;;;;;;3.33;1.30;;;18.30;99.90;;;;;;5056707;28;20215;-79
2022/09/07 01:33:08;;;;;;;1.80;1.20;;;18.30;99.90;;;;;;5057559;28;20233;-78
2022/09/07 01:36:02;;;;;;;2.63;1.17;;;18.30;99.90;;;;;;5056195;28;20175;-78
2022/09/07 01:38:41;;;;;;;3.53;1.50;;;18.30;99.90;;;;;;5056486;28;20187;-78
2022/09/07 01:41:26;;;;;;;2.70;1.07;;;18.30;99.90;;;;;;5056909;28;20629;-77
2022/09/07 01:44:00;;;;;;;4.03;1.20;;;18.30;99.90;;;;;;5050742;28;20181;-79
2022/09/07 01:46:28;;;;;;;3.87;1.70;;;18.30;99.90;;;;;;5036518;28;20176;-79
2022/09/07 01:49:00;;;;;;;2.60;1.50;;;18.30;99.90;;;;;;5045110;28;20685;-78
2022/09/07 01:51:31;;;;;;;7.63;1.50;;;18.30;99.90;;;;;;5057378;28;20193;-78
2022/09/07 01:54:07;;;;;;;6.50;1.50;;;18.30;99.90;;;;;;5057685;28;20163;-77
2022/09/07 01:56:37;;;;;;;2.13;1.30;;;18.20;99.90;;;;;;5057419;28;20151;-77
2022/09/07 01:59:08;;;;;;;3.17;1.80;;;18.20;99.90;;;;;;5057314;28;20188;-79
2022/09/07 02:01:56;;;;;;;4.17;1.47;;;18.20;99.90;;;;;;5053692;28;20191;-79
2022/09/07 02:04:32;;;;;;;2.97;1.40;;;18.20;99.90;;;;;;5057805;28;20160;-77
2022/09/07 02:07:20;;;;;;;2.57;1.27;;;18.20;99.90;;;;;;5056271;28;20203;-78
2022/09/07 02:10:16;;;;;;;2.97;1.30;;;18.20;99.90;;;;;;5055255;28;20597;-78
2022/09/07 02:12:52;;;;;;;1.53;0.97;;;18.20;99.90;;;;;;5056730;28;20202;-78
2022/09/07 02:15:44;;;;;;;3.30;1.43;;;18.20;99.90;;;;;;5056857;28;20621;-78
2022/09/07 02:18:12;;;;;;;4.17;1.40;;;18.20;99.90;;;;;;5050632;28;20278;-79
2022/09/07 02:20:41;;;;;;;3.67;1.17;;;18.20;99.90;;;;;;5055162;28;20580;-78
2022/09/07 02:23:12;;;;;;;5.27;1.50;;;18.10;99.90;;;;;;5056402;28;20182;-78
2022/09/07 02:25:46;;;;;;;3.10;1.13;;;18.00;99.90;;;;;;5057000;28;20159;-77
2022/09/07 02:28:16;;;;;;;2.73;1.10;;;18.00;99.90;;;;;;5055587;28;20207;-77
2022/09/07 02:30:42;;;;;;;1.70;1.20;;;18.00;99.90;;;;;;5055750;28;20651;-78
2022/09/07 02:33:08;;;;;;;3.50;1.30;;;17.90;99.90;;;;;;5056164;28;20187;-79
2022/09/07 02:35:34;;;;;;;3.40;1.30;;;17.90;99.90;;;;;;5055004;28;20175;-77
2022/09/07 02:38:03;;;;;;;4.83;1.30;;;17.90;99.90;;;;;;5056586;28;20191;-79
2022/09/07 02:40:28;;;;;;;3.07;1.50;;;17.90;99.90;;;;;;5056728;28;20691;-79
2022/09/07 02:42:57;;;;;;;1.87;1.30;;;17.90;99.90;;;;;;5055779;28;20183;-79
2022/09/07 02:45:22;;;;;;;2.70;1.30;;;18.00;99.90;;;;;;5056009;28;20180;-78
2022/09/07 02:48:16;;;;;;;2.13;1.00;;;17.90;99.90;;;;;;5054542;28;20286;-79
2022/09/07 02:51:08;;;;;;;5.80;1.40;;;18.00;99.90;;;;;;5035472;28;20362;-76
2022/09/07 02:54:07;;;;;;;2.10;1.17;;;17.90;99.90;;;;;;5034887;28;20180;-75
2022/09/07 02:56:50;;;;;;;2.17;1.23;;;17.90;99.90;;;;;;5033655;28;20168;-75
2022/09/07 02:59:34;;;;;;;2.57;1.60;;;17.90;99.90;;;;;;5033729;28;20192;-76
2022/09/07 03:02:31;;;;;;;3.40;1.70;;;17.90;99.90;;;;;;5035283;28;20532;-77
2022/09/07 03:05:32;;;;;;;3.57;1.50;;;17.90;99.90;;;;;;5040413;28;20255;-76
2022/09/07 03:08:22;;;;;;;3.00;1.73;;;17.90;99.90;;;;;;5054482;28;20191;-76
2022/09/07 03:10:49;;;;;;;3.63;2.70;;;17.80;99.90;;;;;;5054401;28;20163;-75
2022/09/07 03:13:22;;;;;;;3.57;2.70;;;17.80;99.90;;;;;;5053490;28;20168;-77
2022/09/07 03:15:48;;;;;;;6.00;3.17;;;17.80;99.90;;;;;;5054864;28;20175;-77
2022/09/07 03:18:13;;;;;;;4.63;2.63;;;17.80;99.90;;;;;;5055454;28;20195;-76
2022/09/07 03:20:39;;;;;;;2.60;2.10;;;17.80;99.90;;;;;;5051955;28;20176;-76
2022/09/07 03:23:04;;;;;;;3.50;2.20;;;17.80;99.90;;;;;;5054005;28;20171;-76
2022/09/07 03:25:30;;;;;;;4.60;3.10;;;17.80;99.90;;;;;;5054688;28;20229;-76
2022/09/07 03:27:55;;;;;;;4.70;4.00;;;17.80;99.90;;;;;;5054285;28;20218;-77
2022/09/07 03:30:21;;;;;;;8.40;5.67;;;17.80;99.90;;;;;;5053083;28;20190;-77
2022/09/07 03:32:46;;;;;;;10.17;6.60;;;17.80;99.90;;;;;;5057680;28;20191;-76
2022/09/07 03:35:12;;;;;;;8.70;6.40;;;17.80;99.90;;;;;;5058133;28;20620;-77
2022/09/07 03:37:38;;;;;;;12.93;7.23;;;17.80;99.90;;;;;;5057945;28;20277;-77
2022/09/07 03:40:08;;;;;;;13.53;8.80;;;17.80;99.90;;;;;;5057870;28;20192;-76
2022/09/07 03:42:34;;;;;;;12.53;8.93;;;17.80;99.90;;;;;;5057271;28;20262;-76
2022/09/07 03:45:00;;;;;;;14.43;9.53;;;17.80;99.90;;;;;;5056714;28;20207;-76
2022/09/07 03:47:25;;;;;;;11.40;9.47;;;17.80;99.90;;;;;;5058489;28;20175;-76
2022/09/07 03:49:51;;;;;;;11.57;9.33;;;17.80;99.90;;;;;;5058345;28;20168;-76
2022/09/07 03:52:17;;;;;;;12.60;10.40;;;17.80;99.90;;;;;;5057401;28;20691;-75
2022/09/07 03:54:42;;;;;;;10.90;9.80;;;17.80;99.90;;;;;;5057610;28;20172;-76
2022/09/07 03:57:08;;;;;;;14.83;10.50;;;17.80;99.90;;;;;;5057954;28;20626;-76
2022/09/07 03:59:34;;;;;;;15.97;11.60;;;17.80;99.90;;;;;;5056048;28;20195;-76
2022/09/07 04:02:00;;;;;;;15.97;12.63;;;17.70;99.90;;;;;;5056175;28;20176;-76
2022/09/07 04:04:25;;;;;;;20.60;13.00;;;17.70;99.90;;;;;;5056085;28;20176;-75
2022/09/07 04:06:51;;;;;;;18.93;13.17;;;17.80;99.90;;;;;;5057226;28;20172;-76
2022/09/07 04:09:16;;;;;;;21.33;14.17;;;17.70;99.90;;;;;;5056875;28;20213;-75
2022/09/07 04:11:42;;;;;;;19.77;14.67;;;17.70;99.90;;;;;;5057529;28;20245;-75
2022/09/07 04:14:10;;;;;;;21.83;15.80;;;17.80;99.90;;;;;;5056331;28;20656;-75
2022/09/07 04:16:35;;;;;;;22.93;14.90;;;17.70;99.90;;;;;;5055185;28;20645;-76
2022/09/07 04:19:01;;;;;;;24.50;15.63;;;17.70;99.90;;;;;;5057045;28;20199;-75
2022/09/07 04:21:28;;;;;;;24.47;15.60;;;17.70;99.90;;;;;;5057597;28;20176;-77
2022/09/07 04:23:54;;;;;;;27.07;15.43;;;17.70;99.90;;;;;;5057229;28;20183;-76
2022/09/07 04:26:23;;;;;;;19.90;14.90;;;17.70;99.90;;;;;;5056975;28;20184;-75
2022/09/07 04:28:49;;;;;;;20.10;13.10;;;17.60;99.90;;;;;;5056259;28;20219;-76
2022/09/07 04:31:16;;;;;;;22.33;13.80;;;17.60;99.90;;;;;;5059025;28;20207;-79
2022/09/07 04:33:43;;;;;;;24.70;13.97;;;17.60;99.90;;;;;;5067564;28;20172;-79
2022/09/07 04:36:09;;;;;;;25.47;15.13;;;17.60;99.90;;;;;;5067191;28;20172;-80
2022/09/07 04:38:35;;;;;;;21.27;14.33;;;17.60;99.90;;;;;;5065997;28;20202;-79
2022/09/07 04:41:07;;;;;;;23.67;14.57;;;17.60;99.90;;;;;;5069211;28;20266;-80
2022/09/07 04:43:32;;;;;;;21.13;14.47;;;17.60;99.90;;;;;;5061413;28;20199;-76
2022/09/07 04:46:02;;;;;;;18.57;13.73;;;17.60;99.90;;;;;;5054940;28;20183;-75
2022/09/07 04:48:27;;;;;;;18.60;11.93;;;17.60;99.90;;;;;;5053312;28;20203;-76
2022/09/07 04:50:53;;;;;;;18.13;12.73;;;17.60;99.90;;;;;;5054061;28;20179;-75
2022/09/07 04:53:18;;;;;;;17.23;11.03;;;17.50;99.90;;;;;;5054990;28;20249;-77
2022/09/07 04:55:44;;;;;;;18.13;10.90;;;17.50;99.90;;;;;;5055037;28;20691;-75
2022/09/07 04:58:10;;;;;;;16.77;11.33;;;17.50;99.90;;;;;;5054908;28;20806;-75
2022/09/07 05:00:37;;;;;;;19.23;12.00;;;17.50;99.90;;;;;;5055149;28;20171;-79
2022/09/07 05:03:04;;;;;;;17.40;11.07;;;17.50;99.90;;;;;;5059039;28;20176;-79
2022/09/07 05:05:30;;;;;;;13.67;10.80;;;17.50;99.90;;;;;;5061090;28;20203;-80
2022/09/07 05:07:55;;;;;;;17.80;12.20;;;17.50;99.90;;;;;;5061033;28;20693;-81
2022/09/07 05:10:21;;;;;;;21.37;11.20;;;17.50;99.90;;;;;;5060070;28;20179;-80
2022/09/07 05:12:46;;;;;;;16.77;10.30;;;17.40;99.90;;;;;;5061005;28;20208;-81
2022/09/07 05:15:12;;;;;;;15.10;10.90;;;17.40;99.90;;;;;;5061657;28;20358;-81
2022/09/07 05:17:37;;;;;;;16.80;11.23;;;17.40;99.90;;;;;;5059732;28;20222;-80
2022/09/07 05:20:03;;;;;;;14.13;10.63;;;17.40;99.90;;;;;;5061005;28;20732;-82
2022/09/07 05:22:29;;;;;;;15.63;11.07;;;17.40;99.90;;;;;;5060687;28;20551;-80
2022/09/07 05:24:55;;;;;;;16.43;10.43;;;17.40;99.90;;;;;;5059199;28;20194;-80
2022/09/07 05:27:20;;;;;;;16.83;11.20;;;17.40;99.90;;;;;;5061120;28;20183;-80
2022/09/07 05:29:46;;;;;;;12.97;9.67;;;17.40;99.90;;;;;;5080524;22;20231;-79
2022/09/07 05:32:12;;;;;;;13.13;10.23;;;17.40;99.90;;;;;;5054615;28;20676;-78
2022/09/07 05:34:37;;;;;;;17.23;9.77;;;17.40;99.90;;;;;;5054564;28;20179;-78
2022/09/07 05:37:03;;;;;;;15.13;10.43;;;17.40;99.90;;;;;;5054678;28;20175;-78
2022/09/07 05:39:29;;;;;;;11.80;9.40;;;17.40;99.90;;;;;;5053065;28;20191;-78
2022/09/07 05:41:55;;;;;;;13.53;10.40;;;17.40;99.90;;;;;;5053902;28;20171;-78
2022/09/07 05:44:21;;;;;;;17.63;10.67;;;17.40;99.90;;;;;;5052959;28;20664;-77
2022/09/07 05:46:47;;;;;;;14.73;10.07;;;17.40;99.90;;;;;;5054217;28;20175;-77
2022/09/07 05:49:13;;;;;;;13.10;10.17;;;17.40;99.90;;;;;;5052970;28;20633;-77
2022/09/07 05:51:38;;;;;;;12.60;9.27;;;17.30;99.90;;;;;;5052740;28;20270;-76
2022/09/07 05:54:04;;;;;;;17.03;10.17;;;17.30;99.90;;;;;;5051944;28;20172;-77
2022/09/07 05:56:32;;;;;;;15.37;10.73;;;17.40;99.90;;;;;;5055661;28;20174;-79
2022/09/07 05:58:57;;;;;;;15.17;9.70;;;17.40;99.90;;;;;;5056486;28;20188;-79
2022/09/07 06:01:23;;;;;;;17.27;10.40;;;17.40;99.90;;;;;;5056397;28;20201;-79
2022/09/07 06:03:48;;;;;;;19.40;9.73;;;17.40;99.90;;;;;;5055933;28;20176;-79
2022/09/07 06:06:17;;;;;;;17.00;10.20;;;17.40;99.90;;;;;;5056395;28;20259;-79
2022/09/07 06:08:45;;;;;;;18.70;10.30;;;17.40;99.90;;;;;;5056026;28;20199;-79
2022/09/07 06:11:14;;;;;;;14.23;9.80;;;17.40;99.90;;;;;;5056493;28;20192;-79
2022/09/07 06:13:40;;;;;;;16.83;9.67;;;17.40;99.90;;;;;;5055298;28;20183;-79
2022/09/07 06:16:07;;;;;;;13.93;9.63;;;17.50;99.90;;;;;;5056264;28;20163;-79
2022/09/07 06:18:37;;;;;;;15.77;9.90;;;17.50;99.90;;;;;;5055792;28;20191;-79
2022/09/07 06:21:22;;;;;;;13.00;8.90;;;17.50;99.90;;;;;;5056422;28;20206;-79
2022/09/07 06:23:48;;;;;;;14.17;9.53;;;17.50;99.90;;;;;;5056130;28;20579;-79
2022/09/07 06:26:16;;;;;;;12.77;8.53;;;17.60;99.90;;;;;;5055259;28;20184;-79
2022/09/07 06:28:43;;;;;;;17.10;9.67;;;17.60;99.90;;;;;;5053352;28;20238;-79
2022/09/07 06:31:14;;;;;;;13.83;9.47;;;17.60;99.90;;;;;;5054592;28;20194;-78
2022/09/07 06:33:41;;;;;;;13.20;8.87;;;17.60;99.90;;;;;;5055685;28;20605;-79
2022/09/07 06:36:13;;;;;;;15.83;9.27;;;17.70;99.90;;;;;;5054717;28;20159;-80
2022/09/07 06:38:40;;;;;;;14.27;10.63;;;17.70;99.90;;;;;;5053722;28;20282;-79
2022/09/07 06:41:27;;;;;;;15.20;9.50;;;17.70;99.90;;;;;;5055731;28;20176;-79
2022/09/07 06:43:55;;;;;;;20.13;10.23;;;17.80;99.90;;;;;;5054631;28;20368;-79
2022/09/07 06:46:21;;;;;;;14.43;10.70;;;17.80;99.90;;;;;;5053867;28;20180;-79
2022/09/07 06:48:47;;;;;;;15.53;10.37;;;17.90;99.90;;;;;;5054724;28;20232;-78
2022/09/07 06:51:17;;;;;;;16.70;10.97;;;17.90;99.90;;;;;;5055336;28;20715;-79
2022/09/07 06:53:44;;;;;;;15.30;10.53;;;18.00;99.90;;;;;;5058277;28;20167;-79
2022/09/07 06:56:15;;;;;;;20.13;11.23;;;18.10;99.90;;;;;;5058367;28;20168;-79
2022/09/07 06:58:41;;;;;;;20.63;13.37;;;18.20;99.90;;;;;;5056079;28;20191;-79
2022/09/07 07:01:16;;;;;;;17.00;11.70;;;18.30;99.90;;;;;;5057464;28;20716;-78
2022/09/07 07:03:42;;;;;;;19.40;11.33;;;18.40;99.90;;;;;;5058358;28;20205;-79
2022/09/07 07:06:09;;;;;;;21.47;11.57;;;18.40;99.90;;;;;;5057169;28;20174;-79
2022/09/07 07:08:35;;;;;;;16.43;11.60;;;18.50;99.90;;;;;;5056636;28;20657;-79
2022/09/07 07:11:12;;;;;;;17.10;11.50;;;18.60;99.90;;;;;;5056629;28;20199;-79
2022/09/07 07:13:39;;;;;;;16.10;11.07;;;18.60;99.90;;;;;;5058084;28;20159;-79
2022/09/07 07:16:06;;;;;;;15.10;11.20;;;18.70;99.90;;;;;;5058508;28;20171;-79
2022/09/07 07:18:32;;;;;;;16.90;10.33;;;18.70;99.90;;;;;;5057538;28;20191;-80
2022/09/07 07:21:02;;;;;;;15.33;10.83;;;18.80;99.90;;;;;;5058213;28;20176;-79
2022/09/07 07:23:28;;;;;;;15.23;10.57;;;18.90;99.90;;;;;;5057653;28;20160;-79
2022/09/07 07:25:53;;;;;;;15.47;10.67;;;18.90;99.90;;;;;;5057055;28;20179;-79
2022/09/07 07:28:22;;;;;;;17.80;10.80;;;19.00;99.90;;;;;;5058241;28;20741;-79
2022/09/07 07:30:53;;;;;;;15.00;9.77;;;19.00;99.90;;;;;;5059766;28;20153;-79
2022/09/07 07:33:19;;;;;;;12.37;8.97;;;19.10;99.90;;;;;;5057971;28;20152;-79
2022/09/07 07:35:44;;;;;;;12.57;8.97;;;19.10;99.90;;;;;;5059641;28;20199;-79
2022/09/07 07:38:10;;;;;;;12.07;9.13;;;19.10;99.90;;;;;;5059197;28;20266;-79
2022/09/07 07:40:35;;;;;;;14.63;10.83;;;19.10;99.90;;;;;;5060457;28;20186;-79
2022/09/07 07:43:01;;;;;;;13.70;9.90;;;19.20;99.90;;;;;;5058742;28;20176;-79
2022/09/07 07:45:27;;;;;;;12.60;9.30;;;19.20;99.90;;;;;;5060703;28;20186;-79
2022/09/07 07:47:52;;;;;;;11.87;8.63;;;19.20;99.90;;;;;;5059329;28;20180;-80
2022/09/07 07:50:18;;;;;;;12.03;8.40;;;19.20;99.90;;;;;;5061119;28;20262;-79
2022/09/07 07:52:43;;;;;;;11.57;8.00;;;19.20;99.90;;;;;;5056936;28;20245;-79
2022/09/07 07:55:09;;;;;;;9.10;8.13;;;19.20;99.90;;;;;;5055638;28;20183;-79
2022/09/07 07:57:34;;;;;;;11.30;7.60;;;19.10;99.90;;;;;;5058993;28;20218;-80
2022/09/07 08:00:00;;;;;;;11.10;8.47;;;19.20;99.90;;;;;;5057933;28;20199;-80
2022/09/07 08:02:25;;;;;;;9.40;7.67;;;19.10;99.90;;;;;;5059703;28;20176;-80
2022/09/07 08:04:51;;;;;;;7.73;6.03;;;19.20;99.90;;;;;;5059081;28;20605;-80
2022/09/07 08:07:18;;;;;;;5.83;4.47;;;19.10;99.90;;;;;;5059728;28;20168;-81
2022/09/07 08:09:46;;;;;;;5.50;3.50;;;19.00;99.90;;;;;;5058668;28;20231;-81
2022/09/07 08:12:15;;;;;;;5.17;3.30;;;18.90;99.90;;;;;;5058459;28;20203;-80
2022/09/07 08:14:41;;;;;;;4.90;4.03;;;18.80;99.90;;;;;;5055790;28;20168;-81
2022/09/07 08:17:11;;;;;;;4.00;3.20;;;18.80;99.90;;;;;;5054907;28;20646;-81
2022/09/07 08:19:37;;;;;;;5.57;3.60;;;18.80;99.90;;;;;;5057496;28;20192;-81
2022/09/07 08:22:03;;;;;;;5.77;3.57;;;18.80;99.90;;;;;;5058861;28;20187;-81
2022/09/07 08:24:32;;;;;;;6.50;3.80;;;18.80;99.90;;;;;;5058323;28;20168;-81
2022/09/07 08:26:58;;;;;;;4.70;3.50;;;18.80;99.90;;;;;;5058363;28;20209;-81
2022/09/07 08:29:24;;;;;;;10.67;4.03;;;18.80;99.90;;;;;;5058817;28;20211;-81
2022/09/07 08:31:49;;;;;;;6.77;3.97;;;18.80;99.90;;;;;;5056822;28;20629;-81
2022/09/07 08:34:15;;;;;;;6.87;3.90;;;18.70;99.90;;;;;;5056990;28;20642;-80
2022/09/07 08:36:41;;;;;;;7.23;3.87;;;18.90;99.90;;;;;;5058067;28;20199;-81
2022/09/07 08:39:07;;;;;;;7.53;3.83;;;18.80;99.90;;;;;;5056291;28;20198;-80
2022/09/07 08:41:46;;;;;;;5.70;3.50;;;18.90;99.90;;;;;;5056204;28;20183;-80
2022/09/07 08:44:18;;;;;;;5.73;4.13;;;18.90;99.90;;;;;;5056232;28;20570;-81
2022/09/07 08:46:49;;;;;;;5.00;4.17;;;18.90;99.90;;;;;;5056320;28;20171;-81
2022/09/07 08:49:22;;;;;;;7.47;4.50;;;18.80;99.90;;;;;;5057828;28;20531;-80
2022/09/07 08:52:02;;;;;;;8.70;4.47;;;18.90;99.90;;;;;;5058131;28;20190;-80
2022/09/07 08:54:28;;;;;;;7.70;5.10;;;19.00;99.90;;;;;;5057958;28;20183;-80
2022/09/07 08:56:59;;;;;;;6.23;4.77;;;19.00;99.90;;;;;;5056764;28;20237;-80
2022/09/07 08:59:36;;;;;;;5.37;4.10;;;19.10;99.90;;;;;;5057886;28;20188;-80
2022/09/07 09:02:02;;;;;;;9.43;4.80;;;19.20;99.90;;;;;;5059152;28;20159;-79
2022/09/07 09:04:28;;;;;;;6.10;4.20;;;19.30;99.90;;;;;;5056730;28;20547;-79
2022/09/07 09:07:03;;;;;;;6.30;4.40;;;19.20;99.90;;;;;;5058101;28;20182;-80
2022/09/07 09:09:46;;;;;;;7.70;4.03;;;19.20;99.90;;;;;;5056183;28;20249;-81
2022/09/07 09:12:47;;;;;;;6.50;4.30;;;19.40;99.90;;;;;;5056511;28;20233;-79
2022/09/07 09:15:29;;;;;;;5.20;3.77;;;19.60;99.90;;;;;;5056005;28;20636;-80
2022/09/07 09:18:04;;;;;;;4.50;3.57;;;19.70;99.90;;;;;;5056487;28;20170;-81
2022/09/07 09:20:52;;;;;;;6.00;3.87;;;19.80;99.90;;;;;;5057790;28;20163;-80
2022/09/07 09:23:20;;;;;;;5.03;3.60;;;19.90;99.90;;;;;;5055043;28;20171;-78
2022/09/07 09:25:52;;;;;;;4.47;3.30;;;20.00;99.90;;;;;;5055092;28;20167;-78
2022/09/07 09:28:18;;;;;;;5.17;4.07;;;20.00;99.90;;;;;;5055518;28;20187;-78
2022/09/07 09:30:44;;;;;;;3.87;3.27;;;20.00;99.90;;;;;;5055800;28;20581;-78
2022/09/07 09:33:15;;;;;;;9.03;3.80;;;20.00;99.90;;;;;;5058882;28;20237;-80
2022/09/07 09:35:42;;;;;;;5.43;3.40;;;20.00;99.90;;;;;;5059190;28;20595;-79
2022/09/07 09:38:33;;;;;;;3.00;2.70;;;19.80;99.90;;;;;;5054789;28;20197;-78
2022/09/07 09:41:05;;;;;;;5.20;2.83;;;19.90;99.90;;;;;;5055293;28;20167;-78
2022/09/07 09:43:55;;;;;;;3.83;3.03;;;19.90;99.90;;;;;;5054809;28;20176;-79
2022/09/07 09:46:27;;;;;;;4.33;2.77;;;20.00;99.90;;;;;;5053788;28;20203;-78
2022/09/07 09:49:02;;;;;;;3.77;2.63;;;20.10;99.90;;;;;;5055231;28;20191;-78
2022/09/07 09:51:32;;;;;;;5.57;3.17;;;20.20;99.90;;;;;;5053644;28;20668;-78
2022/09/07 09:54:20;;;;;;;4.50;3.20;;;20.30;99.90;;;;;;5054841;28;20178;-78
2022/09/07 09:56:47;;;;;;;5.17;3.57;;;20.30;99.90;;;;;;5056223;28;20182;-80
2022/09/07 09:59:16;;;;;;;4.77;3.20;;;20.40;99.90;;;;;;5055588;28;20200;-78
2022/09/07 10:01:44;;;;;;;4.23;3.13;;;20.40;99.90;;;;;;5054606;28;20214;-77
2022/09/07 10:04:29;;;;;;;3.60;3.30;;;20.40;99.90;;;;;;5053095;28;20612;-78
2022/09/07 10:07:21;;;;;;;3.20;2.67;;;20.40;99.90;;;;;;5052655;28;20180;-78
2022/09/07 10:09:49;;;;;;;5.20;3.20;;;20.40;99.90;;;;;;5053957;28;20363;-78
2022/09/07 10:12:35;;;;;;;4.60;3.20;;;20.50;99.90;;;;;;5052449;28;20207;-78
2022/09/07 10:15:05;;;;;;;5.00;3.80;;;20.60;99.90;;;;;;5055306;28;20298;-79
2022/09/07 10:17:40;;;;;;;4.37;3.43;;;20.70;99.90;;;;;;5054204;28;20172;-79
2022/09/07 10:20:14;;;;;;;5.90;3.17;;;20.80;99.90;;;;;;5055139;28;20591;-79
2022/09/07 10:22:44;;;;;;;6.30;3.70;;;20.80;99.90;;;;;;5056070;28;20623;-79
2022/09/07 10:25:46;;;;;;;4.63;3.50;;;20.90;99.90;;;;;;5056940;28;20179;-79
2022/09/07 10:28:23;;;;;;;5.27;3.60;;;20.90;99.90;;;;;;5023208;28;20215;-79
2022/09/07 10:31:00;;;;;;;5.50;3.00;;;20.90;99.90;;;;;;5052990;28;20217;-79
2022/09/07 10:33:50;;;;;;;5.33;3.20;;;21.00;99.90;;;;;;5054308;28;20179;-79
2022/09/07 10:36:27;;;;;;;3.77;3.03;;;21.10;99.90;;;;;;5055334;28;20618;-79
2022/09/07 10:39:01;;;;;;;5.40;3.10;;;21.10;99.90;;;;;;5053107;28;20195;-79
2022/09/07 10:41:55;;;;;;;4.23;2.97;;;21.20;99.90;;;;;;5053694;28;20628;-78
2022/09/07 10:44:41;;;;;;;5.17;3.27;;;21.20;99.90;;;;;;5054646;28;20210;-78
2022/09/07 10:47:21;;;;;;;4.43;3.23;;;21.30;99.90;;;;;;5054628;28;20634;-78
2022/09/07 10:50:13;;;;;;;5.87;2.83;;;21.50;99.90;;;;;;5052648;28;20195;-76
2022/09/07 10:52:58;;;;;;;2.77;2.23;;;21.60;99.90;;;;;;5052949;28;20561;-76
2022/09/07 10:55:30;;;;;;;3.80;2.47;;;21.70;99.90;;;;;;5051761;28;20320;-76
2022/09/07 10:58:15;;;;;;;4.30;2.70;;;21.80;99.90;;;;;;5051731;28;20578;-76
2022/09/07 11:01:03;;;;;;;5.10;2.93;;;21.90;99.90;;;;;;5050802;28;20187;-76
2022/09/07 11:04:02;;;;;;;5.03;3.10;;;22.00;99.90;;;;;;5052711;28;20156;-77
2022/09/07 11:06:36;;;;;;;4.17;2.63;;;22.10;99.90;;;;;;5054465;28;20168;-78
2022/09/07 11:09:07;;;;;;;3.73;2.70;;;22.30;99.90;;;;;;5052822;28;20287;-78
2022/09/07 11:11:58;;;;;;;7.47;3.17;;;22.40;99.90;;;;;;5051712;28;20222;-78
2022/09/07 11:14:26;;;;;;;4.33;2.80;;;22.30;99.90;;;;;;5051846;28;20160;-78
2022/09/07 11:16:56;;;;;;;3.10;2.80;;;22.30;99.90;;;;;;5056142;28;20172;-79
2022/09/07 11:19:50;;;;;;;5.13;3.43;;;22.10;99.90;;;;;;5055913;28;20681;-79
2022/09/07 11:22:30;;;;;;;3.63;3.27;;;22.10;99.90;;;;;;5055535;28;20588;-79
2022/09/07 11:25:02;;;;;;;6.47;3.33;;;22.00;99.90;;;;;;5055191;28;20207;-78
2022/09/07 11:27:41;;;;;;;6.03;3.53;;;22.00;99.90;;;;;;5057185;28;20229;-79
2022/09/07 11:30:13;;;;;;;3.10;2.80;;;22.00;99.90;;;;;;5101209;22;20311;-78
2022/09/07 11:32:52;;;;;;;3.67;3.37;;;22.00;99.90;;;;;;5089128;28;20218;-79
2022/09/07 11:35:34;;;;;;;4.53;3.10;;;22.10;1.00;;;;;;5090655;28;20164;-79
2022/09/07 11:38:08;;;;;;;7.20;3.50;;;22.20;99.90;;;;;;5083329;28;20171;-80
2022/09/07 11:40:41;;;;;;;4.67;3.13;;;22.30;1.00;;;;;;5075690;28;20194;-79
2022/09/07 11:43:46;;;;;;;4.73;3.10;;;22.30;99.90;;;;;;5076009;28;20159;-79
2022/09/07 11:46:31;;;;;;;4.13;3.00;;;22.40;1.00;;;;;;5075396;28;20190;-78
2022/09/07 11:48:57;;;;;;;5.30;3.93;;;22.60;1.00;;;;;;5076591;28;20289;-79
2022/09/07 11:51:48;;;;;;;4.17;3.50;;;22.60;99.90;;;;;;5077704;28;20708;-79
2022/09/07 11:54:35;;;;;;;5.30;3.67;;;22.70;99.90;;;;;;5079662;28;20242;-79
2022/09/07 11:57:34;;;;;;;6.70;3.33;;;22.60;99.90;;;;;;5079387;28;20561;-79
2022/09/07 12:00:17;;;;;;;4.20;2.80;;;22.70;1.00;;;;;;5079865;28;20195;-79
2022/09/07 12:03:05;;;;;;;3.87;2.40;;;22.80;1.00;;;;;;5079984;28;20162;-79
2022/09/07 12:06:09;;;;;;;4.00;3.10;;;22.90;1.00;;;;;;5079994;28;20169;-79
2022/09/07 12:08:52;;;;;;;7.57;3.33;;;23.00;99.90;;;;;;5079350;28;20227;-79
2022/09/07 12:11:42;;;;;;;6.50;3.47;;;23.00;99.90;;;;;;5079587;28;20195;-79
2022/09/07 12:14:42;;;;;;;3.37;2.90;;;22.90;27.80;;;;;;5079579;28;20159;-79
2022/09/07 12:17:14;;;;;;;4.73;3.30;;;22.90;10.90;;;;;;5078302;28;20173;-79
2022/09/07 12:19:39;;;;;;;4.17;2.37;;;22.90;1.00;;;;;;5078571;28;20668;-80
2022/09/07 12:22:19;;;;;;;4.27;2.47;;;22.90;1.00;;;;;;5078494;28;20205;-80
2022/09/07 12:24:47;;;;;;;3.67;3.03;;;23.00;99.90;;;;;;5079432;28;20629;-79
2022/09/07 12:27:19;;;;;;;4.23;2.73;;;23.10;1.00;;;;;;5080958;28;20179;-82
2022/09/07 12:30:05;;;;;;;5.83;2.63;;;23.10;1.00;;;;;;5083268;28;20240;-82
2022/09/07 12:32:46;;;;;;;4.70;2.73;;;23.20;10.90;;;;;;5077345;28;20203;-81
2022/09/07 12:35:27;;;;;;;3.80;2.50;;;23.30;1.00;;;;;;5088892;28;20645;-80
2022/09/07 12:37:54;;;;;;;2.70;2.17;;;23.50;99.90;;;;;;5077092;28;20175;-81
2022/09/07 12:40:28;;;;;;;3.77;2.57;;;23.60;99.90;;;;;;5077445;28;20191;-80
2022/09/07 12:43:12;;;;;;;4.50;2.00;;;23.70;99.90;;;;;;5077564;28;20181;-81
2022/09/07 12:45:38;;;;;;;3.80;2.10;;;24.00;99.90;;;;;;5077640;28;20159;-80
2022/09/07 12:48:15;;;;;;;3.60;2.53;;;24.00;1.00;;;;;;5076877;28;20178;-79
2022/09/07 12:51:16;;;;;;;6.50;3.10;;;24.10;1.00;;;;;;5076107;28;20201;-81
2022/09/07 12:54:12;;;;;;;3.50;2.43;;;23.90;1.00;;;;;;5059878;28;20678;-81
2022/09/07 12:56:41;;;;;;;3.47;2.20;;;23.90;99.90;;;;;;5076591;28;20152;-81
2022/09/07 12:59:33;;;;;;;5.90;2.10;;;23.70;1.00;;;;;;5077136;28;20213;-81
2022/09/07 13:02:01;;;;;;;4.93;2.00;;;23.70;46.00;;;;;;5077430;28;20167;-80
2022/09/07 13:04:41;;;;;;;8.43;1.90;;;23.90;99.90;;;;;;5076513;28;20171;-79
2022/09/07 13:07:45;;;;;;;3.63;1.70;;;23.90;99.90;;;;;;5075738;28;20162;-80
2022/09/07 13:10:31;;;;;;;2.80;2.20;;;23.90;1.00;;;;;;5075965;28;20225;-80